createdAt,value
2018-09-03T00:01:05.399Z,50.30
2018-09-03T00:03:33.831Z,50.40
2018-09-03T00:06:02.160Z,50.50
2018-09-03T00:08:30.439Z,50.60
2018-09-03T00:10:58.673Z,50.80
2018-09-03T00:13:26.975Z,51.00
2018-09-03T00:15:55.224Z,51.10
2018-09-03T00:18:23.580Z,51.30
2018-09-03T00:20:51.811Z,51.40
2018-09-03T00:23:20.035Z,51.60
2018-09-03T00:25:48.277Z,51.70
2018-09-03T00:28:16.535Z,51.80
2018-09-03T00:30:44.830Z,52.00
2018-09-03T00:33:18.235Z,52.10
2018-09-03T00:35:51.939Z,52.20
2018-09-03T00:38:25.495Z,52.40
2018-09-03T00:40:59.727Z,52.50
2018-09-03T00:43:33.552Z,52.70
2018-09-03T00:46:07.201Z,53.10
2018-09-03T00:48:35.443Z,53.30
2018-09-03T00:51:03.695Z,53.60
2018-09-03T00:53:32.183Z,53.80
2018-09-03T00:56:00.403Z,54.10
2018-09-03T00:58:28.664Z,54.30
2018-09-03T01:00:56.909Z,54.50
2018-09-03T01:03:25.123Z,54.70
2018-09-03T01:05:53.361Z,55.00
2018-09-03T01:08:21.583Z,55.00
2018-09-03T01:10:49.811Z,55.30
2018-09-03T01:13:18.076Z,55.40
2018-09-03T01:15:46.310Z,55.70
2018-09-03T01:18:14.584Z,56.10
2018-09-03T01:20:42.835Z,56.30
2018-09-03T01:23:11.313Z,56.90
2018-09-03T01:25:39.544Z,57.10
2018-09-03T01:28:07.764Z,57.20
2018-09-03T01:30:35.998Z,57.60
2018-09-03T01:33:04.283Z,57.70
2018-09-03T01:35:32.522Z,58.10
2018-09-03T01:38:00.735Z,58.30
2018-09-03T01:40:28.970Z,58.60
2018-09-03T01:42:57.464Z,58.90
2018-09-03T01:45:25.775Z,59.10
2018-09-03T01:47:54.027Z,59.20
2018-09-03T01:50:22.272Z,59.30
2018-09-03T01:52:50.551Z,59.30
2018-09-03T01:55:18.829Z,59.30
2018-09-03T01:57:47.098Z,59.40
2018-09-03T02:00:15.326Z,59.50
2018-09-03T02:02:43.543Z,59.60
2018-09-03T02:05:11.779Z,59.80
2018-09-03T02:07:40.027Z,60.10
2018-09-03T02:10:08.249Z,60.40
2018-09-03T02:12:36.449Z,60.70
2018-09-03T02:15:04.958Z,60.90
2018-09-03T02:17:33.196Z,61.30
2018-09-03T02:20:01.418Z,61.50
2018-09-03T02:22:29.680Z,61.70
2018-09-03T02:24:57.890Z,62.30
2018-09-03T02:27:26.167Z,62.50
2018-09-03T02:29:54.379Z,62.90
2018-09-03T02:32:22.703Z,63.00
2018-09-03T02:34:50.938Z,63.20
2018-09-03T02:37:19.260Z,63.60
2018-09-03T02:39:47.499Z,63.70
2018-09-03T02:42:15.745Z,64.10
2018-09-03T02:44:44.018Z,64.40
2018-09-03T02:47:12.279Z,64.60
2018-09-03T02:49:40.516Z,64.70
2018-09-03T02:52:08.747Z,65.10
2018-09-03T02:54:36.995Z,65.30
2018-09-03T02:57:05.298Z,65.70
2018-09-03T02:59:33.506Z,66.00
2018-09-03T03:02:01.764Z,66.20
2018-09-03T03:04:30.039Z,66.50
2018-09-03T03:06:58.304Z,66.80
2018-09-03T03:09:26.572Z,67.10
2018-09-03T03:11:54.905Z,67.40
2018-09-03T03:14:23.150Z,67.60
2018-09-03T03:16:51.381Z,68.00
2018-09-03T03:19:19.647Z,68.20
2018-09-03T03:21:47.899Z,68.50
2018-09-03T03:24:16.164Z,68.70
2018-09-03T03:26:44.407Z,68.80
2018-09-03T03:29:12.695Z,69.10
2018-09-03T03:31:40.966Z,69.20
2018-09-03T03:34:09.220Z,69.30
2018-09-03T03:36:37.491Z,69.60
2018-09-03T03:39:06.840Z,69.90
2018-09-03T03:41:35.108Z,70.10
2018-09-03T03:44:03.589Z,70.40
2018-09-03T03:46:32.329Z,70.50
2018-09-03T03:49:00.594Z,70.60
2018-09-03T03:51:28.834Z,70.70
2018-09-03T03:53:57.094Z,70.90
2018-09-03T03:56:25.343Z,71.20
2018-09-03T03:58:53.592Z,71.40
2018-09-03T04:01:21.863Z,71.50
2018-09-03T04:03:50.108Z,71.60
2018-09-03T04:06:18.399Z,71.90
2018-09-03T04:08:46.640Z,72.10
2018-09-03T04:11:14.902Z,72.20
2018-09-03T04:13:43.202Z,72.50
2018-09-03T04:16:11.479Z,72.60
2018-09-03T04:18:39.755Z,72.80
2018-09-03T04:21:08.007Z,72.90
2018-09-03T04:23:36.257Z,73.10
2018-09-03T04:26:04.529Z,73.40
2018-09-03T04:28:32.787Z,73.60
2018-09-03T04:31:01.018Z,73.80
2018-09-03T04:33:29.303Z,73.90
2018-09-03T04:35:57.548Z,74.10
2018-09-03T04:38:25.811Z,74.30
2018-09-03T04:40:54.052Z,74.40
2018-09-03T04:43:22.350Z,74.70
2018-09-03T04:45:50.607Z,74.90
2018-09-03T04:48:18.899Z,74.90
2018-09-03T04:50:47.174Z,75.10
2018-09-03T04:53:15.399Z,75.20
2018-09-03T04:55:43.665Z,75.50
2018-09-03T04:58:11.919Z,75.70
2018-09-03T05:00:40.203Z,75.70
2018-09-03T05:03:08.447Z,75.80
2018-09-03T05:05:36.708Z,76.00
2018-09-03T05:08:05.000Z,76.00
2018-09-03T05:10:33.260Z,76.20
2018-09-03T05:13:01.516Z,76.30
2018-09-03T05:15:29.754Z,76.50
2018-09-03T05:17:57.970Z,76.60
2018-09-03T05:20:26.230Z,76.80
2018-09-03T05:22:54.759Z,77.00
2018-09-03T05:25:23.024Z,77.00
2018-09-03T05:27:51.298Z,77.10
2018-09-03T05:30:20.760Z,77.20
2018-09-03T05:32:49.422Z,77.30
2018-09-03T05:35:18.196Z,77.40
2018-09-03T05:37:46.916Z,77.60
2018-09-03T05:40:15.918Z,77.80
2018-09-03T05:42:44.666Z,77.70
2018-09-03T05:45:12.938Z,77.90
2018-09-03T05:47:41.207Z,78.10
2018-09-03T05:50:09.486Z,78.30
2018-09-03T05:52:38.620Z,78.40
2018-09-03T05:55:06.926Z,78.40
2018-09-03T05:57:35.147Z,78.70
2018-09-03T06:00:03.406Z,78.80
2018-09-03T06:02:31.656Z,78.90
2018-09-03T06:05:00.070Z,79.00
2018-09-03T06:07:28.310Z,79.00
2018-09-03T06:09:56.628Z,79.10
2018-09-03T06:12:24.915Z,79.20
2018-09-03T06:14:53.159Z,79.20
2018-09-03T06:17:21.448Z,79.20
2018-09-03T06:19:49.711Z,79.00
2018-09-03T06:22:17.993Z,79.30
2018-09-03T06:24:46.266Z,79.30
2018-09-03T06:27:14.542Z,79.40
2018-09-03T06:29:42.787Z,79.50
2018-09-03T06:32:11.059Z,80.20
2018-09-03T06:34:39.319Z,79.50
2018-09-03T06:37:07.607Z,79.60
2018-09-03T06:39:35.875Z,79.80
2018-09-03T06:42:04.164Z,79.70
2018-09-03T06:44:32.396Z,79.90
2018-09-03T06:47:00.667Z,80.20
2018-09-03T06:49:28.984Z,80.40
2018-09-03T06:51:57.267Z,80.70
2018-09-03T06:54:25.642Z,80.90
2018-09-03T06:56:53.915Z,81.10
2018-09-03T06:59:22.171Z,81.30
2018-09-03T07:01:50.422Z,81.40
2018-09-03T07:04:18.823Z,81.40
2018-09-03T07:06:47.124Z,81.60
2018-09-03T07:09:15.399Z,81.80
2018-09-03T07:11:43.670Z,82.20
2018-09-03T07:14:11.947Z,82.40
2018-09-03T07:16:40.248Z,82.50
2018-09-03T07:19:08.523Z,82.60
2018-09-03T07:21:36.759Z,83.00
2018-09-03T07:24:04.991Z,83.50
2018-09-03T07:26:33.263Z,83.90
2018-09-03T07:29:01.517Z,84.40
2018-09-03T07:31:29.763Z,84.70
2018-09-03T07:33:58.178Z,84.80
2018-09-03T07:36:26.416Z,84.90
2018-09-03T07:38:54.656Z,85.20
2018-09-03T07:41:22.891Z,85.40
2018-09-03T07:43:51.124Z,86.50
2018-09-03T07:46:19.479Z,85.90
2018-09-03T07:48:47.735Z,86.20
2018-09-03T07:51:15.975Z,86.50
2018-09-03T07:53:44.239Z,86.50
2018-09-03T07:56:12.475Z,86.80
2018-09-03T07:58:40.759Z,86.90
2018-09-03T08:01:09.050Z,87.10
2018-09-03T08:03:37.308Z,87.30
2018-09-03T08:06:05.778Z,87.40
2018-09-03T08:08:34.023Z,87.60
2018-09-03T08:11:02.265Z,88.00
2018-09-03T08:13:36.415Z,88.70
2018-09-03T08:16:05.060Z,88.90
2018-09-03T08:18:33.319Z,89.30
2018-09-03T08:21:01.560Z,89.80
2018-09-03T08:23:29.875Z,90.00
2018-09-03T08:25:58.160Z,89.90
2018-09-03T08:28:26.441Z,89.80
2018-09-03T08:30:54.703Z,89.90
2018-09-03T08:33:22.935Z,90.10
2018-09-03T08:35:51.186Z,90.10
2018-09-03T08:38:19.435Z,90.00
2018-09-03T08:47:31.283Z,84.60
2018-09-03T08:49:59.592Z,86.90
2018-09-03T08:52:27.856Z,88.30
2018-09-03T08:54:56.164Z,89.10
2018-09-03T08:57:24.431Z,88.90
2018-09-03T08:59:52.710Z,88.60
2018-09-03T09:02:20.946Z,88.70
2018-09-03T09:04:49.220Z,88.60
2018-09-03T09:07:17.448Z,88.80
2018-09-03T09:09:45.703Z,88.80
2018-09-03T09:12:13.948Z,88.50
2018-09-03T09:14:42.239Z,87.70
2018-09-03T09:17:10.499Z,86.80
2018-09-03T09:19:38.760Z,85.50
2018-09-03T09:22:07.015Z,84.20
2018-09-03T09:24:35.272Z,83.00
2018-09-03T09:27:03.539Z,82.20
2018-09-03T09:29:31.763Z,81.50
2018-09-03T09:32:00.198Z,81.10
2018-09-03T09:34:28.501Z,80.60
2018-09-03T09:36:56.882Z,79.60
2018-09-03T09:39:25.187Z,78.80
2018-09-03T09:41:53.491Z,78.40
2018-09-03T09:44:21.731Z,77.90
2018-09-03T09:46:49.968Z,78.00
2018-09-03T09:49:18.230Z,78.00
2018-09-03T09:51:46.462Z,78.50
2018-09-03T09:54:14.751Z,78.60
2018-09-03T09:56:43.056Z,78.60
2018-09-03T09:59:11.285Z,78.70
2018-09-03T10:01:39.554Z,78.80
2018-09-03T10:04:08.000Z,79.10
2018-09-03T10:06:36.470Z,79.40
2018-09-03T10:09:06.806Z,79.70
2018-09-03T10:11:35.122Z,79.90
2018-09-03T10:14:03.537Z,80.40
2018-09-03T10:16:31.891Z,81.20
2018-09-03T10:19:00.161Z,82.50
2018-09-03T10:21:28.443Z,83.70
2018-09-03T10:23:56.666Z,84.70
2018-09-03T10:26:24.988Z,85.50
2018-09-03T10:28:53.203Z,86.40
2018-09-03T10:31:21.634Z,87.60
2018-09-03T10:33:49.903Z,88.60
2018-09-03T10:36:18.167Z,89.00
2018-09-03T10:38:46.395Z,88.90
2018-09-03T10:41:14.629Z,88.90
2018-09-03T10:43:43.100Z,88.80
2018-09-03T10:46:11.332Z,88.40
2018-09-03T10:48:39.572Z,88.00
2018-09-03T10:51:07.815Z,87.60
2018-09-03T10:53:36.074Z,87.70
2018-09-03T10:56:04.361Z,87.30
2018-09-03T10:58:32.571Z,86.70
2018-09-03T11:01:00.804Z,85.70
2018-09-03T11:03:29.047Z,85.00
2018-09-03T11:05:57.304Z,84.50
2018-09-03T11:08:25.603Z,82.90
2018-09-03T11:10:53.850Z,82.00
2018-09-03T11:13:22.176Z,81.60
2018-09-03T11:15:50.421Z,80.20
2018-09-03T11:18:18.650Z,79.00
2018-09-03T11:20:46.919Z,78.10
2018-09-03T11:23:15.192Z,77.60
2018-09-03T11:25:43.511Z,77.20
2018-09-03T11:28:11.760Z,75.70
2018-09-03T11:30:40.031Z,76.60
2018-09-03T11:33:08.290Z,75.90
2018-09-03T11:35:36.589Z,75.10
2018-09-03T11:38:04.820Z,75.60
2018-09-03T11:40:33.079Z,75.40
2018-09-03T11:46:06.619Z,74.40
2018-09-03T11:48:35.234Z,74.00
2018-09-03T11:51:03.526Z,72.80
2018-09-03T11:53:31.792Z,72.00
2018-09-03T11:56:00.042Z,71.40
2018-09-03T11:58:28.311Z,71.50
2018-09-03T12:00:58.534Z,72.20
2018-09-03T12:03:26.844Z,72.10
2018-09-03T12:05:55.111Z,70.30
2018-09-03T12:08:23.332Z,69.80
2018-09-03T12:10:51.947Z,70.00
2018-09-03T12:13:20.187Z,69.90
2018-09-03T12:16:19.693Z,68.30
2018-09-03T12:18:47.952Z,68.20
2018-09-03T12:21:16.439Z,68.20
2018-09-03T12:23:45.000Z,67.60
2018-09-03T12:26:13.349Z,67.10
2018-09-03T12:28:41.603Z,65.30
2018-09-03T12:31:09.871Z,64.60
2018-09-03T12:33:38.139Z,63.10
2018-09-03T12:36:06.469Z,62.60
2018-09-03T12:38:35.026Z,62.20
2018-09-03T12:41:03.422Z,61.90
2018-09-03T12:43:31.859Z,61.70
2018-09-03T12:46:02.051Z,61.10
2018-09-03T12:48:31.098Z,60.50
2018-09-03T12:51:00.138Z,60.60
2018-09-03T12:53:28.597Z,59.60
2018-09-03T12:55:56.812Z,59.50
2018-09-03T12:58:25.078Z,59.20
2018-09-03T13:00:53.395Z,58.70
2018-09-03T13:03:21.599Z,59.00
2018-09-03T13:05:49.824Z,59.30
2018-09-03T13:08:18.061Z,59.50
2018-09-03T13:10:46.311Z,59.60
2018-09-03T13:13:14.642Z,59.60
2018-09-03T13:15:42.908Z,59.50
2018-09-03T13:18:11.179Z,59.40
2018-09-03T13:20:39.427Z,59.40
2018-09-03T13:23:07.683Z,59.40
2018-09-03T13:25:35.923Z,59.40
2018-09-03T13:28:04.140Z,60.20
2018-09-03T13:30:32.396Z,59.80
2018-09-03T13:33:00.618Z,59.80
2018-09-03T13:35:28.960Z,60.50
2018-09-03T13:37:57.207Z,60.80
2018-09-03T13:40:25.524Z,60.60
2018-09-03T13:42:53.786Z,60.60
2018-09-03T13:45:22.036Z,60.70
2018-09-03T13:47:50.389Z,60.70
2018-09-03T13:50:18.611Z,60.70
2018-09-03T13:52:46.874Z,57.40
2018-09-03T13:55:15.146Z,54.10
2018-09-03T13:57:43.391Z,53.80
2018-09-03T14:00:12.601Z,54.00
2018-09-03T14:02:40.898Z,54.60
2018-09-03T14:05:09.317Z,55.30
2018-09-03T14:07:37.561Z,55.60
2018-09-03T14:10:05.880Z,55.80
2018-09-03T14:12:34.187Z,56.10
2018-09-03T14:15:02.525Z,56.00
2018-09-03T14:17:30.794Z,56.50
2018-09-03T14:19:59.348Z,56.90
2018-09-03T14:22:27.597Z,57.60
2018-09-03T14:24:55.860Z,57.50
2018-09-03T14:27:24.255Z,57.30
2018-09-03T14:29:52.801Z,55.10
2018-09-03T14:32:21.098Z,51.30
2018-09-03T14:34:49.450Z,49.10
2018-09-03T14:37:17.720Z,46.20
2018-09-03T14:39:45.984Z,44.00
2018-09-03T14:42:14.197Z,44.70
2018-09-03T14:44:42.447Z,45.70
2018-09-03T14:47:10.743Z,47.30
2018-09-03T14:49:38.990Z,48.60
2018-09-03T14:52:07.195Z,49.20
2018-09-03T14:54:35.449Z,49.70
2018-09-03T14:57:03.727Z,50.20
2018-09-03T14:59:31.992Z,50.90
2018-09-03T15:02:00.271Z,51.60
2018-09-03T15:04:28.551Z,52.30
2018-09-03T15:06:56.824Z,53.20
2018-09-03T15:09:25.076Z,54.10
2018-09-03T15:11:53.479Z,54.80
2018-09-03T15:14:21.747Z,55.50
2018-09-03T15:16:50.011Z,56.00
2018-09-03T15:19:18.271Z,55.40
2018-09-03T15:21:46.510Z,54.80
2018-09-03T15:24:14.731Z,53.80
2018-09-03T15:26:43.046Z,52.90
2018-09-03T15:29:11.222Z,52.90
2018-09-03T15:31:39.487Z,52.90
2018-09-03T15:34:07.778Z,51.80
2018-09-03T15:36:36.125Z,50.60
2018-09-03T15:39:06.671Z,50.70
2018-09-03T15:41:34.891Z,51.40
2018-09-03T15:44:03.146Z,52.00
2018-09-03T15:46:31.366Z,52.50
2018-09-03T15:48:59.635Z,53.20
2018-09-03T15:51:27.839Z,54.00
2018-09-03T15:53:56.266Z,54.40
2018-09-03T15:56:24.554Z,54.60
2018-09-03T15:58:52.814Z,54.60
2018-09-03T16:01:21.081Z,54.30
2018-09-03T16:03:49.390Z,53.90
2018-09-03T16:06:17.623Z,53.60
2018-09-03T16:08:45.907Z,53.30
2018-09-03T16:11:14.172Z,53.60
2018-09-03T16:13:42.407Z,53.90
2018-09-03T16:16:10.671Z,54.30
2018-09-03T16:18:38.918Z,54.80
2018-09-03T16:21:07.139Z,55.60
2018-09-03T16:23:35.387Z,56.50
2018-09-03T16:26:03.643Z,57.30
2018-09-03T16:28:31.919Z,58.10
2018-09-03T16:31:00.227Z,58.70
2018-09-03T16:33:28.503Z,59.60
2018-09-03T16:35:56.793Z,60.40
2018-09-03T16:38:25.031Z,61.40
2018-09-03T16:40:53.284Z,62.30
2018-09-03T16:43:21.508Z,62.90
2018-09-03T16:45:49.759Z,63.40
2018-09-03T16:48:18.021Z,64.10
2018-09-03T16:50:46.330Z,65.00
2018-09-03T16:53:14.578Z,65.70
2018-09-03T16:55:42.823Z,66.40
2018-09-03T16:58:11.059Z,67.50
2018-09-03T17:00:39.307Z,69.50
2018-09-03T17:03:07.531Z,70.20
2018-09-03T17:05:35.879Z,71.20
2018-09-03T17:08:04.238Z,72.40
2018-09-03T17:10:32.411Z,73.50
2018-09-03T17:13:00.674Z,74.80
2018-09-03T17:15:28.946Z,75.40
2018-09-03T17:17:57.190Z,76.20
2018-09-03T17:20:25.536Z,77.70
2018-09-03T17:22:53.720Z,80.60
2018-09-03T17:25:22.125Z,84.30
2018-09-03T17:27:50.434Z,85.30
2018-09-03T17:30:19.111Z,86.80
2018-09-03T17:32:47.393Z,88.10
2018-09-03T17:35:15.612Z,90.20
2018-09-03T17:37:43.870Z,90.30
2018-09-03T17:40:12.133Z,91.10
2018-09-03T17:42:40.436Z,91.70
2018-09-03T17:45:09.059Z,92.10
2018-09-03T17:47:38.219Z,92.30
2018-09-03T17:50:06.554Z,93.20
2018-09-03T17:52:34.779Z,93.90
2018-09-03T17:55:03.273Z,94.40
2018-09-03T17:57:31.579Z,95.10
2018-09-03T17:59:59.822Z,95.60
2018-09-03T18:02:28.090Z,96.00
2018-09-03T18:04:56.327Z,96.20
2018-09-03T18:07:24.592Z,96.40
2018-09-03T18:09:52.828Z,96.70
2018-09-03T18:12:21.073Z,97.00
2018-09-03T18:14:49.319Z,97.20
2018-09-03T18:17:17.580Z,97.30
2018-09-03T18:19:45.863Z,97.20
2018-09-03T18:22:14.081Z,97.00
2018-09-03T18:24:42.470Z,97.60
2018-09-03T18:27:10.678Z,98.00
2018-09-03T18:29:38.969Z,98.50
2018-09-03T18:32:07.323Z,99.10
2018-09-03T18:34:35.597Z,99.30
2018-09-03T18:37:03.887Z,99.20
2018-09-03T18:39:32.199Z,98.90
2018-09-03T18:42:01.287Z,98.70
2018-09-03T18:44:29.551Z,98.90
2018-09-03T18:46:57.806Z,99.30
2018-09-03T18:49:27.089Z,99.50
2018-09-03T18:51:55.426Z,99.40
2018-09-03T18:54:24.015Z,99.60
2018-09-03T18:56:52.783Z,99.90
2018-09-03T18:59:21.412Z,99.90
2018-09-03T19:01:50.604Z,99.90
2018-09-03T19:04:19.230Z,99.90
2018-09-03T19:06:48.160Z,99.90
2018-09-03T19:09:16.399Z,99.90
2018-09-03T19:11:44.683Z,99.90
2018-09-03T19:14:12.934Z,99.90
2018-09-03T19:16:41.154Z,99.90
2018-09-03T19:19:09.420Z,99.90
2018-09-03T19:21:37.678Z,99.90
2018-09-03T19:24:06.007Z,99.90
2018-09-03T19:26:34.271Z,99.90
2018-09-03T19:29:02.482Z,99.90
2018-09-03T19:31:30.715Z,99.90
2018-09-03T19:33:58.920Z,99.90
2018-09-03T19:36:27.165Z,99.90
2018-09-03T19:38:55.428Z,99.90
2018-09-03T19:41:23.675Z,99.90
2018-09-03T19:43:52.325Z,99.90
2018-09-03T19:46:20.614Z,99.90
2018-09-03T19:48:48.931Z,99.90
2018-09-03T19:51:17.211Z,99.90
2018-09-03T19:53:45.584Z,99.90
2018-09-03T19:56:13.806Z,99.90
2018-09-03T19:58:42.093Z,99.90
2018-09-03T20:01:10.360Z,99.90
2018-09-03T20:03:38.811Z,99.90
2018-09-03T20:06:07.099Z,99.90
2018-09-03T20:08:35.359Z,99.90
2018-09-03T20:11:03.593Z,99.90
2018-09-03T20:13:32.207Z,99.90
2018-09-03T20:16:00.494Z,99.90
2018-09-03T20:18:28.734Z,99.90
2018-09-03T20:20:56.988Z,99.90
2018-09-03T20:23:25.379Z,99.90
2018-09-03T20:25:53.502Z,99.90
2018-09-03T20:28:21.774Z,99.90
2018-09-03T20:30:49.991Z,99.90
2018-09-03T20:33:24.776Z,99.90
2018-09-03T20:35:53.075Z,99.90
2018-09-03T20:38:21.320Z,99.90
2018-09-03T20:40:49.587Z,99.90
2018-09-03T20:43:17.808Z,99.90
2018-09-03T20:45:46.115Z,99.90
2018-09-03T20:48:14.500Z,99.90
2018-09-03T20:50:42.771Z,99.90
2018-09-03T20:53:11.132Z,99.90
2018-09-03T20:55:39.400Z,99.90
2018-09-03T20:58:07.648Z,99.90
2018-09-03T21:00:35.905Z,99.90
2018-09-03T21:03:04.143Z,99.90
2018-09-03T21:05:32.426Z,99.90
2018-09-03T21:08:00.699Z,99.90
2018-09-03T21:10:28.943Z,99.90
2018-09-03T21:12:57.199Z,99.90
2018-09-03T21:15:25.624Z,99.90
2018-09-03T21:17:53.884Z,99.90
2018-09-03T21:20:22.127Z,99.90
2018-09-03T21:22:50.364Z,99.90
2018-09-03T21:25:18.625Z,99.90
2018-09-03T21:27:46.867Z,99.90
2018-09-03T21:30:15.136Z,99.90
2018-09-03T21:32:43.423Z,99.90
2018-09-03T21:35:11.656Z,99.90
2018-09-03T21:37:39.917Z,99.90
2018-09-03T21:40:08.244Z,99.90
2018-09-03T21:42:36.504Z,99.90
2018-09-03T21:45:04.985Z,99.90
2018-09-03T21:47:33.300Z,99.90
2018-09-03T21:50:01.516Z,99.90
2018-09-03T21:52:29.790Z,99.90
2018-09-03T21:54:58.056Z,99.90
2018-09-03T21:57:26.332Z,99.90
2018-09-03T21:59:54.597Z,99.90
2018-09-03T22:02:22.862Z,99.90
2018-09-03T22:04:51.139Z,99.90
2018-09-03T22:07:19.376Z,99.90
2018-09-03T22:09:47.622Z,99.90
2018-09-03T22:12:15.892Z,99.90
2018-09-03T22:14:44.334Z,99.90
2018-09-03T22:17:12.563Z,99.90
2018-09-03T22:19:40.788Z,99.90
2018-09-03T22:22:09.061Z,99.90
2018-09-03T22:24:37.292Z,99.90
2018-09-03T22:27:05.519Z,99.90
2018-09-03T22:29:33.751Z,99.90
2018-09-03T22:32:01.980Z,99.90
2018-09-03T22:34:30.223Z,99.90
2018-09-03T22:36:58.461Z,99.90
2018-09-03T22:39:26.724Z,99.90
2018-09-03T22:41:55.016Z,99.90
2018-09-03T22:44:23.375Z,99.90
2018-09-03T22:46:51.611Z,99.90
2018-09-03T22:49:19.861Z,99.90
2018-09-03T22:51:48.123Z,99.90
2018-09-03T22:54:16.343Z,99.90
2018-09-03T22:56:44.633Z,99.90
2018-09-03T22:59:12.950Z,99.90
2018-09-03T23:01:41.194Z,99.90
2018-09-03T23:04:09.466Z,99.90
2018-09-03T23:06:37.683Z,99.90
2018-09-03T23:09:06.740Z,99.90
2018-09-03T23:11:35.016Z,99.90
2018-09-03T23:14:03.320Z,99.90
2018-09-03T23:16:31.577Z,99.90
2018-09-03T23:18:59.819Z,99.90
2018-09-03T23:21:28.053Z,99.90
2018-09-03T23:23:56.352Z,99.90
2018-09-03T23:26:24.572Z,99.90
2018-09-03T23:28:52.828Z,99.90
2018-09-03T23:31:21.102Z,99.90
2018-09-03T23:33:49.359Z,99.90
2018-09-03T23:36:17.579Z,99.90
2018-09-03T23:38:45.822Z,99.90
2018-09-03T23:41:14.039Z,99.90
2018-09-03T23:43:42.472Z,99.90
2018-09-03T23:46:10.707Z,99.90
2018-09-03T23:48:38.956Z,99.90
2018-09-03T23:51:07.219Z,99.90
2018-09-03T23:53:35.443Z,99.90
2018-09-03T23:56:03.723Z,99.90
2018-09-03T23:58:31.978Z,99.90
